DW5572 Weather Reports


time (UTC)temp
F
wind
direction
speed
knots
gust
knots
rain 1hr
in
rain 24hr
in
rain mn
in
humidity
%
barometer
mb
20260504110431 47 178 7.0 9.6 0.00 0.00 0.00 72 1007.8
20260504100430 47 172 7.0 10.4 0.00 0.00 0.00 75 1007.7
20260504081919 46 175 5.2 7.8 0.00 0.00 0.00 78 1008.1
20260504081420 46 174 5.2 7.0 0.00 0.00 0.00 78 1008.1
20260504080920 46 175 5.2 8.7 0.00 0.00 0.00 78 1008.1
20260504080419 46 173 4.3 8.7 0.00 0.00 0.00 78 1008.2
20260504050408 45 185 3.5 5.2 0.00 0.00 0.00 65 1008.4
20260504045906 45 182 2.6 4.3 0.00 0.00 0.00 63 1008.5
20260504045406 45 176 2.6 4.3 0.00 0.00 0.00 62 1008.5
20260504044908 45 175 2.6 4.3 0.00 0.00 0.00 61 1008.6
20260504044631 45 175 1.7 3.5 0.00 0.00 0.00 60 1008.6
20260504044134 45 177 1.7 3.5 0.00 0.00 0.00 60 1008.6
20260504043402 46 179 1.7 2.6 0.00 0.00 0.00 59 1008.7
20260504043121 46 178 1.7 4.3 0.00 0.00 0.00 58 1008.7
20260504042403 46 176 1.7 4.3 0.00 0.00 0.00 57 1008.8
20260504041903 46 174 1.7 4.3 0.00 0.00 0.00 56 1008.8
20260504041624 46 175 1.7 4.3 0.00 0.00 0.00 57 1008.8
20260504040902 46 175 2.6 4.3 0.00 0.00 0.00 56 1008.7
20260504040403 46 174 2.6 4.3 0.00 0.00 0.00 56 1008.7
20260504035904 46 175 1.7 3.5 0.00 0.00 0.00 54 1008.8
20260504035358 46 177 0.9 2.6 0.00 0.00 0.00 56 1008.7
20260504034856 46 178 0.9 2.6 0.00 0.00 0.00 54 1008.7
20260504034357 46 178 1.7 2.6 0.00 0.00 0.00 54 1008.7
20260504033858 46 176 1.7 4.3 0.00 0.00 0.00 54 1008.7
20260504033357 46 179 2.6 4.3 0.00 0.00 0.00 53 1008.7
20260504032857 46 178 2.6 4.3 0.00 0.00 0.00 54 1008.8
20260504032356 46 194 1.7 4.3 0.00 0.00 0.00 56 1008.8
20260504031857 46 193 2.6 3.5 0.00 0.00 0.00 54 1008.7
20260504031358 45 189 1.7 3.5 0.00 0.00 0.00 56 1008.7
20260504030858 45 189 1.7 3.5 0.00 0.00 0.00 57 1008.7
20260504030400 45 187 1.7 2.6 0.00 0.00 0.00 56 1008.8
20260504025901 45 188 1.7 2.6 0.00 0.00 0.00 56 1008.7
20260504025359 44 188 1.7 2.6 0.00 0.00 0.00 56 1008.7
20260504024859 44 189 1.7 2.6 0.00 0.00 0.00 55 1008.7
20260504024401 45 189 1.7 3.5 0.00 0.00 0.00 54 1008.6
20260504023858 45 190 1.7 3.5 0.00 0.00 0.00 52 1008.6
20260504023357 45 170 0.9 3.5 0.00 0.00 0.00 50 1008.6
20260504023124 45 170 0.9 1.7 0.00 0.00 0.00 49 1008.7
20260504022352 45 170 0.0 1.7 0.00 0.00 0.00 48 1008.7
20260504021852 46 170 0.0 0.9 0.00 0.00 0.00 48 1008.8
20260504021351 46 170 0.0 0.9 0.00 0.00 0.00 47 1008.7
20260504020850 46 170 0.0 0.9 0.00 0.00 0.00 47 1008.7
20260504020352 46 170 0.0 0.9 0.00 0.00 0.00 46 1008.7
20260504020115 46 170 0.0 0.9 0.00 0.00 0.00 46 1008.7
20260504015350 46 170 0.0 0.9 0.00 0.00 0.00 45 1008.8
20260504014850 46 170 0.0 3.5 0.00 0.00 0.00 45 1008.8
20260504014347 47 170 0.0 3.5 0.00 0.00 0.00 45 1008.8
20260504013848 47 169 0.0 1.7 0.00 0.00 0.00 44 1008.8
20260504013342 47 170 0.0 1.7 0.00 0.00 0.00 43 1008.7
20260504012842 47 166 0.0 1.7 0.00 0.00 0.00 43 1008.8
20260504012341 47 166 0.0 0.0 0.00 0.00 0.00 43 1008.8
20260504011838 47 166 0.0 0.0 0.00 0.00 0.00 43 1008.7
20260504011558 47 166 0.0 1.7 0.00 0.00 0.00 43 1008.7
20260504010838 47 166 0.0 1.7 0.00 0.00 0.00 43 1008.7
20260504010339 48 166 0.0 3.5 0.00 0.00 0.00 43 1008.6
20260504010059 48 166 0.9 3.5 0.00 0.00 0.00 43 1008.5
20260504005340 48 34 0.9 3.5 0.00 0.00 0.00 45 1008.5
20260504004838 48 162 0.9 3.5 0.00 0.00 0.00 43 1008.4
20260504004338 48 210 0.9 5.2 0.00 0.00 0.00 43 1008.3
20260504003837 48 166 0.9 5.2 0.00 0.00 0.00 43 1008.3
20260504003556 47 30 0.9 3.5 0.00 0.00 0.00 45 1008.2
20260504002838 47 298 0.9 3.5 0.00 0.00 0.00 44 1008.1
20260504002336 47 205 0.0 2.6 0.00 0.00 0.00 45 1008.0
20260504002100 47 165 0.0 2.6 0.00 0.00 0.00 47 1008.0
20260504001334 48 329 0.0 1.7 0.00 0.00 0.00 47 1008.0
20260504000335 48 338 0.9 1.7 0.00 0.00 0.00 48 1007.9
20260503235836 48 340 0.9 1.7 0.00 0.00 0.00 47 1007.8
20260503235336 49 339 0.9 1.7 0.00 0.00 0.00 46 1007.7
20260503234839 49 339 1.7 3.5 0.00 0.00 0.00 46 1007.6
20260503234334 49 337 1.7 3.5 0.00 0.00 0.00 45 1007.6
20260503233836 49 15 1.7 4.3 0.00 0.00 0.00 48 1007.5
20260503233333 50 31 2.6 4.3 0.00 0.00 0.00 44 1007.3
20260503232832 50 17 2.6 6.1 0.00 0.00 0.00 44 1007.4
20260503232558 51 28 3.5 6.1 0.00 0.00 0.00 45 1007.3
20260503231828 51 9 3.5 7.8 0.00 0.00 0.00 44 1007.3
20260503231549 51 9 4.3 7.8 0.00 0.00 0.00 44 1007.3
20260503231039 52 15 5.2 10.4 0.00 0.00 0.00 43 1007.2
20260503230322 52 9 5.2 10.4 0.00 0.00 0.00 43 1007.1
20260503225824 52 28 3.5 8.7 0.00 0.00 0.00 42 1007.2
20260503225324 52 348 2.6 6.1 0.00 0.00 0.00 43 1007.1
20260503225053 52 26 3.5 7.8 0.00 0.00 0.00 42 1007.1
20260503224322 53 30 3.5 7.8 0.00 0.00 0.00 44 1007.1
20260503223824 53 31 4.3 7.8 0.00 0.00 0.00 42 1007.1
20260503223322 53 9 5.2 13.0 0.00 0.00 0.00 40 1007.1
20260503222822 54 9 4.3 13.0 0.00 0.00 0.00 39 1007.1
20260503222320 55 46 3.5 10.4 0.00 0.00 0.00 39 1007.1
20260503221819 55 346 3.5 9.6 0.00 0.00 0.00 37 1007.2
20260503221320 55 103 3.5 10.4 0.00 0.00 0.00 39 1007.2
20260503221043 55 9 5.2 10.4 0.00 0.00 0.00 40 1007.1
20260503220320 56 49 6.1 11.3 0.00 0.00 0.00 39 1007.2
20260503220047 56 17 6.1 11.3 0.00 0.00 0.00 39 1007.1
20260503215308 56 28 4.3 11.3 0.00 0.00 0.00 38 1007.1
20260503214801 56 314 3.5 9.6 0.00 0.00 0.00 39 1007.3
20260503214255 56 50 3.5 9.6 0.00 0.00 0.00 38 1007.2
20260503213750 56 259 4.3 9.6 0.00 0.00 0.00 39 1007.3
20260503213244 56 348 2.6 10.4 0.00 0.00 0.00 39 1007.3
20260503212738 56 273 2.6 10.4 0.00 0.00 0.00 38 1007.3
20260503212231 56 326 3.5 9.6 0.00 0.00 0.00 39 1007.3
20260503211726 55 194 2.6 8.7 0.00 0.00 0.00 41 1007.2
20260503211704 54 143 1.7 8.7 0.00 0.00 0.00 45 1007.2
20260503210715 53 24 1.7 6.1 0.00 0.00 0.00 42 1007.3
20260503210215 53 340 2.6 7.0 0.00 0.00 0.00 44 1007.3
20260503205940 52 257 2.6 7.8 0.00 0.00 0.00 41 1007.3
20260503205215 53 323 2.6 8.7 0.00 0.00 0.00 44 1007.4
20260503204710 53 322 2.6 8.7 0.00 0.00 0.00 42 1007.3
20260503204204 53 151 1.7 7.8 0.00 0.00 0.00 44 1007.3
20260503203703 53 37 1.7 7.8 0.00 0.00 0.00 44 1007.3
20260503203203 53 159 3.5 9.6 0.00 0.00 0.00 44 1007.3
20260503202702 52 265 5.2 9.6 0.00 0.00 0.00 43 1007.4
20260503202204 52 26 3.5 9.6 0.00 0.00 0.00 44 1007.4
20260503201926 52 145 1.7 7.8 0.00 0.00 0.00 45 1007.5
20260503201420 52 323 1.7 5.2 0.00 0.00 0.00 44 1007.4
20260503200700 52 263 1.7 5.2 0.00 0.00 0.00 46 1007.4
20260503200420 52 11 2.6 6.1 0.00 0.00 0.00 49 1007.5
20260503195701 52 19 1.7 6.1 0.00 0.00 0.00 47 1007.5
20260503195202 52 16 1.7 6.1 0.00 0.00 0.00 48 1007.5
20260503194700 52 121 2.6 7.0 0.00 0.00 0.00 43 1007.6
20260503194201 52 29 2.6 8.7 0.00 0.00 0.00 45 1007.7
20260503193701 53 336 2.6 8.7 0.00 0.00 0.00 47 1007.7
20260503193201 52 331 2.6 7.0 0.00 0.00 0.00 47 1007.8
20260503192701 51 17 2.6 7.8 0.00 0.01 0.00 46 1007.8
20260503192202 51 295 4.3 10.4 0.00 0.01 0.00 46 1007.9
20260503191656 51 338 5.2 12.2 0.00 0.01 0.00 48 1008.0
20260503191150 51 13 2.6 12.2 0.00 0.02 0.00 47 1008.0
20260503190643 51 314 2.6 8.7 0.00 0.02 0.00 47 1008.1
20260503190138 52 348 2.6 8.7 0.00 0.02 0.00 45 1008.1
20260503185633 52 254 1.7 7.0 0.00 0.02 0.00 46 1008.1
20260503185134 53 296 1.7 7.0 0.00 0.02 0.00 48 1008.2
20260503184634 53 115 2.6 8.7 0.00 0.02 0.00 47 1008.2
20260503184406 52 333 3.5 8.7 0.00 0.02 0.00 48 1008.2
20260503183631 51 254 6.1 14.8 0.00 0.02 0.00 51 1008.3
20260503183357 51 26 5.2 14.8 0.00 0.02 0.00 47 1008.4
20260503182629 51 29 2.6 7.0 0.00 0.02 0.00 45 1008.4
20260503182350 51 332 3.5 7.8 0.00 0.02 0.00 46 1008.4
20260503181630 51 9 5.2 10.4 0.00 0.02 0.00 48 1008.5
20260503181352 51 21 4.3 10.4 0.00 0.02 0.00 50 1008.5
20260503180628 51 35 4.3 10.4 0.00 0.02 0.00 48 1008.5
20260503180128 51 329 4.3 10.4 0.00 0.02 0.00 48 1008.6
20260503175626 50 33 4.3 9.6 0.00 0.02 0.00 47 1008.6
20260503175127 50 291 5.2 10.4 0.00 0.02 0.00 47 1008.6
20260503174850 50 9 4.3 10.4 0.00 0.02 0.00 48 1008.6
20260503174122 51 349 2.6 7.8 0.00 0.02 0.00 51 1008.6
20260503173622 50 57 2.6 8.7 0.00 0.02 0.00 51 1008.6
20260503173121 50 315 1.7 8.7 0.00 0.02 0.00 49 1008.6
20260503172621 50 319 1.7 5.2 0.00 0.02 0.00 50 1008.7
20260503172121 50 292 2.6 12.2 0.00 0.02 0.00 49 1008.7
20260503171622 50 298 3.5 12.2 0.00 0.02 0.00 48 1008.7
20260503171121 50 142 4.3 12.2 0.00 0.02 0.00 51 1008.7
20260503170622 50 310 4.3 12.2 0.00 0.02 0.00 49 1008.8
20260503170121 49 36 4.3 9.6 0.00 0.02 0.00 49 1008.8
20260503160111 48 33 3.5 8.7 0.00 0.02 0.00 54 1009.0
20260503150603 47 27 4.3 7.8 0.00 0.02 0.00 65 1009.3
20260503140245 49 304 4.3 10.4 0.00 0.02 0.00 65 1009.6
20260503131016 47 312 2.6 7.8 0.00 0.02 0.00 75 1009.8
20260503130511 46 350 4.3 7.8 0.00 0.02 0.00 76 1009.8